createdAt,value
2022-11-21T05:18:00.130Z,1.25
2022-11-21T05:20:26.683Z,0.90
2022-11-21T05:22:53.256Z,1.13
2022-11-21T05:25:19.783Z,1.08
2022-11-21T05:27:46.343Z,1.05
2022-11-21T05:30:13.000Z,0.80
2022-11-21T05:32:39.467Z,1.60
2022-11-21T05:35:07.470Z,1.02
2022-11-21T05:37:33.944Z,1.05
2022-11-21T05:40:09.695Z,1.30
2022-11-21T05:42:58.372Z,0.82
2022-11-21T05:45:24.865Z,1.77
2022-11-21T05:47:51.384Z,0.77
2022-11-21T05:50:20.137Z,1.10
2022-11-21T05:52:46.928Z,1.05
2022-11-21T05:55:13.511Z,0.80
2022-11-21T05:57:40.137Z,1.02
2022-11-21T06:00:07.268Z,1.00
2022-11-21T06:02:52.692Z,1.20
2022-11-21T06:05:19.310Z,0.90
2022-11-21T06:07:46.004Z,0.80
2022-11-21T06:10:12.539Z,1.63
2022-11-21T06:12:38.981Z,1.23
2022-11-21T06:15:05.784Z,1.08
2022-11-21T06:17:32.544Z,1.02
2022-11-21T06:24:24.075Z,0.82
2022-11-21T06:26:50.489Z,1.88
2022-11-21T06:29:16.940Z,1.48
2022-11-21T06:31:43.381Z,1.25
2022-11-21T06:34:09.816Z,1.70
2022-11-21T06:36:37.225Z,1.17
2022-11-21T06:39:03.976Z,1.95
2022-11-21T06:41:31.866Z,1.58
2022-11-21T06:44:00.810Z,1.45
2022-11-21T06:46:27.750Z,1.73
2022-11-21T06:48:54.443Z,1.30
2022-11-21T06:51:22.954Z,2.03
2022-11-21T06:53:55.863Z,2.75
2022-11-21T06:56:32.566Z,1.77
2022-11-21T06:58:59.342Z,1.67
2022-11-21T07:01:25.885Z,2.20
2022-11-21T07:03:53.103Z,1.50
2022-11-21T07:06:19.660Z,1.33
2022-11-21T07:08:46.248Z,1.42
2022-11-21T07:11:29.826Z,1.60
2022-11-21T07:13:56.581Z,1.17
2022-11-21T07:16:32.493Z,1.27
2022-11-21T07:19:00.251Z,1.40
2022-11-21T07:21:32.922Z,1.65
2022-11-21T07:23:59.629Z,1.83
2022-11-21T07:26:26.058Z,1.83
2022-11-21T07:28:53.422Z,1.90
2022-11-21T07:31:19.873Z,1.98
2022-11-21T07:33:47.571Z,2.25
2022-11-21T07:36:14.117Z,2.45
2022-11-21T07:38:42.159Z,1.98
2022-11-21T07:41:10.010Z,2.58
2022-11-21T07:43:36.562Z,2.03
2022-11-21T07:46:03.035Z,1.80
2022-11-21T07:48:29.478Z,3.30
2022-11-21T07:51:06.002Z,2.17
2022-11-21T07:53:32.628Z,2.08
2022-11-21T07:55:59.855Z,2.20
2022-11-21T07:58:26.717Z,1.92
2022-11-21T08:00:53.770Z,2.03
2022-11-21T08:03:20.477Z,1.73
2022-11-21T08:05:47.379Z,1.88
2022-11-21T08:08:14.410Z,1.95
2022-11-21T08:10:43.131Z,1.58
2022-11-21T08:13:12.743Z,1.92
2022-11-21T08:15:39.613Z,1.77
2022-11-21T08:18:14.385Z,2.00
2022-11-21T08:20:41.628Z,1.40
2022-11-21T08:23:09.928Z,1.60
2022-11-21T08:25:40.891Z,2.08
2022-11-21T08:28:36.644Z,1.70
2022-11-21T08:31:07.157Z,1.95
2022-11-21T08:33:34.735Z,1.50
2022-11-21T08:36:21.449Z,1.60
2022-11-21T08:38:47.903Z,1.52
2022-11-21T08:41:33.295Z,1.23
2022-11-21T08:44:00.065Z,1.80
2022-11-21T08:46:28.151Z,1.00
2022-11-21T08:48:56.815Z,1.33
2022-11-21T08:51:23.326Z,1.73
2022-11-21T08:53:50.495Z,1.60
2022-11-21T08:56:16.945Z,0.95
2022-11-21T08:58:46.703Z,1.70
2022-11-21T09:01:13.225Z,2.05
2022-11-21T09:03:39.697Z,1.63
2022-11-21T09:06:06.611Z,0.85
2022-11-21T09:08:33.116Z,1.05
2022-11-21T09:11:04.656Z,0.98
2022-11-21T09:13:31.411Z,1.25
2022-11-21T09:16:20.431Z,1.20
2022-11-21T09:18:47.651Z,1.10
2022-11-21T09:21:18.562Z,1.45
2022-11-21T09:23:45.331Z,1.02
2022-11-21T09:26:12.174Z,1.52
2022-11-21T09:28:41.349Z,1.33
2022-11-21T09:31:08.670Z,1.63
2022-11-21T09:33:35.649Z,1.08
2022-11-21T09:36:02.079Z,1.10
2022-11-21T09:38:30.063Z,0.85
2022-11-21T09:41:37.394Z,1.20
2022-11-21T09:44:47.343Z,0.85
2022-11-21T09:47:23.234Z,1.00
2022-11-21T09:49:56.988Z,0.82
2022-11-21T09:52:30.774Z,0.82
2022-11-21T09:55:01.179Z,1.38
2022-11-21T09:57:32.118Z,1.80
2022-11-21T10:00:04.069Z,1.10
2022-11-21T10:02:40.009Z,0.90
2022-11-21T10:05:13.130Z,1.30
2022-11-21T10:07:40.388Z,1.13
2022-11-21T10:10:22.395Z,1.05
2022-11-21T10:13:13.213Z,1.05
2022-11-21T10:15:48.674Z,0.73
2022-11-21T10:18:54.501Z,0.43
2022-11-21T10:21:45.349Z,0.40
2022-11-21T10:24:35.962Z,0.60
2022-11-21T10:27:14.581Z,0.70
2022-11-21T10:29:57.152Z,0.65
2022-11-21T10:32:39.141Z,0.55
2022-11-21T10:35:15.144Z,0.55
2022-11-21T10:38:01.894Z,0.85
2022-11-21T10:40:47.298Z,1.23
2022-11-21T10:43:35.526Z,0.57
2022-11-21T10:46:01.976Z,0.73
2022-11-21T10:48:28.552Z,0.52
2022-11-21T10:51:13.305Z,0.90
2022-11-21T10:54:03.200Z,0.80
2022-11-21T10:56:35.473Z,0.63
2022-11-21T10:59:13.858Z,0.60
2022-11-21T11:01:40.404Z,0.40
2022-11-21T11:04:29.007Z,0.70
2022-11-21T11:06:57.321Z,0.68
2022-11-21T11:09:34.603Z,1.27
2022-11-21T11:12:25.083Z,0.77
2022-11-21T11:14:54.792Z,0.88
2022-11-21T11:17:33.751Z,0.93
2022-11-21T11:20:30.076Z,0.80
2022-11-21T11:22:56.567Z,0.57
2022-11-21T11:25:23.368Z,0.65
2022-11-21T11:27:49.836Z,0.90
2022-11-21T11:30:19.776Z,0.57
2022-11-21T11:32:48.052Z,1.10
2022-11-21T11:35:21.980Z,0.80
2022-11-21T11:38:17.074Z,0.70
2022-11-21T11:40:47.696Z,0.60
2022-11-21T11:43:50.643Z,0.52
2022-11-21T11:46:55.093Z,0.65
2022-11-21T11:49:52.972Z,0.32
2022-11-21T11:52:24.445Z,0.63
2022-11-21T11:54:58.298Z,0.60
2022-11-21T11:57:26.747Z,0.40
2022-11-21T12:00:19.617Z,0.50
2022-11-21T12:02:54.384Z,0.52
2022-11-21T12:05:25.607Z,0.88
2022-11-21T12:11:32.409Z,0.50
2022-11-21T12:14:38.670Z,0.60
2022-11-21T12:17:08.871Z,0.70
2022-11-21T12:19:37.464Z,0.50
2022-11-21T12:22:06.565Z,0.63
2022-11-21T12:24:42.528Z,0.60
2022-11-21T12:27:52.605Z,0.70
2022-11-21T12:31:17.186Z,0.75
2022-11-21T12:34:02.877Z,0.65
2022-11-21T12:36:43.780Z,0.60
2022-11-21T12:39:59.290Z,0.52
2022-11-21T12:42:50.085Z,0.60
2022-11-21T12:45:50.229Z,0.52
2022-11-21T12:48:55.628Z,0.70
2022-11-21T12:51:52.818Z,0.55
2022-11-21T12:54:50.196Z,1.10
2022-11-21T12:58:16.379Z,0.50
2022-11-21T13:01:03.507Z,0.55
2022-11-21T13:03:45.416Z,0.73
2022-11-21T13:06:28.690Z,0.57
2022-11-21T13:08:59.414Z,0.57
2022-11-21T13:12:00.433Z,0.60
2022-11-21T13:15:05.424Z,1.08
2022-11-21T13:20:16.990Z,0.55
2022-11-21T13:22:43.681Z,0.50
2022-11-21T13:25:40.197Z,0.40
2022-11-21T13:28:20.121Z,0.73
2022-11-21T13:30:47.183Z,0.60
2022-11-21T13:33:35.651Z,0.70
2022-11-21T13:36:05.825Z,0.40
2022-11-21T13:38:53.687Z,0.90
2022-11-21T13:41:54.246Z,0.77
2022-11-21T13:44:38.268Z,0.40
2022-11-21T13:47:26.476Z,0.60
2022-11-21T13:50:15.949Z,0.35
2022-11-21T13:53:02.234Z,0.80
2022-11-21T13:55:44.865Z,0.45
2022-11-21T13:58:16.705Z,0.60
2022-11-21T14:01:08.570Z,0.77
2022-11-21T14:04:06.254Z,1.10
2022-11-21T14:07:16.856Z,1.27
2022-11-21T14:09:49.236Z,0.45
2022-11-21T14:12:33.828Z,0.73
2022-11-21T14:15:25.481Z,0.75
2022-11-21T14:17:57.247Z,0.60
2022-11-21T14:20:27.710Z,1.02
2022-11-21T14:22:57.285Z,0.75
2022-11-21T14:25:47.678Z,1.33
2022-11-21T14:28:26.866Z,0.70
2022-11-21T14:31:08.703Z,1.08
2022-11-21T14:33:42.756Z,1.00
2022-11-21T14:39:20.852Z,0.85
2022-11-21T14:41:44.813Z,0.50
2022-11-21T14:44:38.588Z,0.60
2022-11-21T14:47:23.607Z,0.83
2022-11-21T14:49:58.539Z,1.15
2022-11-21T14:52:31.451Z,1.17
2022-11-21T14:55:32.937Z,0.70
2022-11-21T14:57:46.766Z,0.63
2022-11-21T15:00:51.319Z,1.13
2022-11-21T15:03:19.546Z,0.77
2022-11-21T15:06:05.021Z,0.80
2022-11-21T15:11:22.763Z,1.00
2022-11-21T15:14:15.965Z,1.55
2022-11-21T15:16:50.875Z,1.27
2022-11-21T15:21:54.875Z,1.50
2022-11-21T15:24:42.174Z,1.05
2022-11-21T15:27:27.008Z,2.67
2022-11-21T15:30:12.875Z,2.05
2022-11-21T15:33:01.311Z,1.63
2022-11-21T15:35:49.242Z,1.90
2022-11-21T15:38:24.274Z,1.52
2022-11-21T15:41:10.116Z,3.60
2022-11-21T15:43:48.154Z,2.70
2022-11-21T15:46:17.951Z,3.05
2022-11-21T15:48:47.027Z,2.90
2022-11-21T15:51:14.126Z,2.17
2022-11-21T15:53:40.797Z,3.88
2022-11-21T15:56:21.356Z,3.25
2022-11-21T15:58:49.880Z,2.85
2022-11-21T16:01:22.677Z,2.92
2022-11-21T16:03:53.458Z,4.57
2022-11-21T16:06:34.569Z,5.70
2022-11-21T16:09:02.942Z,5.00
2022-11-21T16:11:37.371Z,4.85
2022-11-21T16:14:07.269Z,6.55
2022-11-21T16:16:42.656Z,6.07
2022-11-21T16:19:38.916Z,7.30
2022-11-21T16:22:05.461Z,3.97
2022-11-21T16:24:32.136Z,4.03
2022-11-21T16:26:58.682Z,3.28
2022-11-21T16:29:25.221Z,3.10
2022-11-21T16:31:52.281Z,3.10
2022-11-21T16:34:22.973Z,3.13
2022-11-21T16:36:50.680Z,2.85
2022-11-21T16:39:20.811Z,2.50
2022-11-21T16:41:49.400Z,2.88
2022-11-21T16:44:19.557Z,2.95
2022-11-21T16:47:15.357Z,6.65
2022-11-21T16:49:49.009Z,6.47
2022-11-21T16:52:25.249Z,4.95
2022-11-21T16:55:02.895Z,3.05
2022-11-21T16:57:30.078Z,3.17
2022-11-21T17:06:06.272Z,4.40
2022-11-21T17:14:39.282Z,4.80
2022-11-21T17:17:09.019Z,4.22
2022-11-21T17:19:35.622Z,4.22
2022-11-21T17:22:04.912Z,4.05
2022-11-21T17:24:34.623Z,4.65
2022-11-21T17:27:03.835Z,5.63
2022-11-21T17:29:30.665Z,4.70
2022-11-21T17:31:57.398Z,4.45
2022-11-21T17:34:29.783Z,5.93
2022-11-21T17:37:09.026Z,6.57
2022-11-21T17:39:36.596Z,4.50
2022-11-21T17:42:03.659Z,5.00
2022-11-21T17:44:31.437Z,4.80
2022-11-21T17:46:59.877Z,4.03
2022-11-21T17:49:27.100Z,4.47
2022-11-21T17:51:56.607Z,5.03
2022-11-21T17:54:23.568Z,4.32
2022-11-21T17:56:56.475Z,3.45
2022-11-21T17:59:23.451Z,4.40
2022-11-21T18:01:50.001Z,4.15
2022-11-21T18:04:17.750Z,3.35
2022-11-21T18:06:44.560Z,5.28
2022-11-21T18:09:11.828Z,4.20
2022-11-21T18:11:40.428Z,4.57
2022-11-21T18:14:09.260Z,2.97
2022-11-21T18:16:39.310Z,3.78
2022-11-21T18:19:05.968Z,5.57
2022-11-21T18:21:38.199Z,3.47
2022-11-21T18:24:05.053Z,4.78
2022-11-21T18:26:34.124Z,3.92
2022-11-21T18:29:35.073Z,5.47
2022-11-21T18:31:53.393Z,4.22
2022-11-21T18:34:20.125Z,3.80
2022-11-21T18:36:47.701Z,3.35
2022-11-21T18:39:18.094Z,3.90
2022-11-21T18:41:44.805Z,5.03
2022-11-21T18:44:19.991Z,5.63
2022-11-21T18:46:48.504Z,4.35
2022-11-21T18:49:15.191Z,5.30
2022-11-21T18:51:41.718Z,3.20
2022-11-21T18:54:10.975Z,3.78
2022-11-21T18:56:39.062Z,3.03
2022-11-21T18:59:11.267Z,3.92
2022-11-21T19:01:39.700Z,4.30
2022-11-21T19:04:06.580Z,4.53
2022-11-21T19:06:33.149Z,5.45
2022-11-21T19:09:01.765Z,4.70
2022-11-21T19:11:29.996Z,5.55
2022-11-21T19:14:16.138Z,4.68
2022-11-21T19:16:48.221Z,5.10
2022-11-21T19:19:35.512Z,3.53
2022-11-21T19:22:07.429Z,3.60
2022-11-21T19:24:33.988Z,3.55
2022-11-21T19:27:00.512Z,4.20
2022-11-21T19:29:27.289Z,3.85
2022-11-21T19:31:54.211Z,2.70
2022-11-21T19:34:20.849Z,3.13
2022-11-21T19:36:47.415Z,5.72
2022-11-21T19:39:19.328Z,3.78
2022-11-21T19:41:50.524Z,3.78
2022-11-21T19:44:17.116Z,4.65
2022-11-21T19:46:43.808Z,4.47
2022-11-21T19:49:11.478Z,5.18
2022-11-21T19:51:41.875Z,4.05
2022-11-21T19:54:12.181Z,5.20
2022-11-21T19:56:39.213Z,6.05
2022-11-21T19:59:06.032Z,2.95
2022-11-21T20:01:41.817Z,4.78
2022-11-21T20:04:14.443Z,3.63
2022-11-21T20:06:46.267Z,2.92
2022-11-21T20:09:42.094Z,2.60
2022-11-21T20:12:11.526Z,3.97
2022-11-21T20:14:41.027Z,3.17
2022-11-21T20:17:09.822Z,2.13
2022-11-21T20:19:36.335Z,3.10
2022-11-21T20:22:02.817Z,3.28
2022-11-21T20:24:29.903Z,3.90
2022-11-21T20:26:56.560Z,4.80
2022-11-21T20:29:53.307Z,2.35
2022-11-21T20:32:19.840Z,2.65
2022-11-21T20:34:48.499Z,5.15
2022-11-21T20:37:14.934Z,3.45
2022-11-21T20:39:41.382Z,2.88
2022-11-21T20:42:08.207Z,2.78
2022-11-21T20:45:30.040Z,3.28
2022-11-21T20:47:25.408Z,3.00
2022-11-21T20:49:52.794Z,4.05
2022-11-21T20:55:06.917Z,2.67
2022-11-21T20:57:33.520Z,2.00
2022-11-21T21:00:00.015Z,2.28
2022-11-21T21:02:26.544Z,2.35
2022-11-21T21:05:04.979Z,2.90
2022-11-21T21:07:37.616Z,2.83
2022-11-21T21:10:05.769Z,2.67
2022-11-21T21:12:32.977Z,3.35
2022-11-21T21:15:10.632Z,3.88
2022-11-21T21:17:37.431Z,2.45
2022-11-21T21:20:04.329Z,2.38
2022-11-21T21:22:30.795Z,2.40
2022-11-21T21:24:57.652Z,2.80
2022-11-21T21:27:24.167Z,3.70
2022-11-21T21:29:51.666Z,2.83
2022-11-21T21:32:18.449Z,3.58
2022-11-21T21:34:45.098Z,2.80
2022-11-21T21:37:12.798Z,3.15
2022-11-21T21:39:39.370Z,2.80
2022-11-21T21:42:06.172Z,2.45
2022-11-21T21:44:33.703Z,1.73
2022-11-21T21:47:04.552Z,2.80
2022-11-21T21:49:31.139Z,2.60
2022-11-21T21:51:57.905Z,3.05
2022-11-21T21:54:27.222Z,2.80
2022-11-21T21:56:58.209Z,1.98
2022-11-21T21:59:27.829Z,1.63
2022-11-21T22:01:59.419Z,1.73
2022-11-21T22:04:26.221Z,2.33
2022-11-21T22:06:53.099Z,1.98
2022-11-21T22:09:20.114Z,1.58
2022-11-21T22:11:46.881Z,1.75
2022-11-21T22:14:15.766Z,1.60
2022-11-21T22:16:43.372Z,1.33
2022-11-21T22:19:09.888Z,1.92
2022-11-21T22:21:37.628Z,1.15
2022-11-21T22:24:27.474Z,1.40
2022-11-21T22:26:54.288Z,1.60
2022-11-21T22:29:20.764Z,1.98
2022-11-21T22:31:47.215Z,1.50
2022-11-21T22:34:14.360Z,1.38
2022-11-21T22:36:41.588Z,1.83
2022-11-21T22:39:08.384Z,1.50
2022-11-21T22:41:35.127Z,1.55
2022-11-21T22:44:01.744Z,1.30
2022-11-21T22:46:29.318Z,1.77
2022-11-21T22:48:56.473Z,1.85
2022-11-21T22:51:26.428Z,1.60
2022-11-21T22:53:53.038Z,1.25
2022-11-21T22:56:21.623Z,1.58
2022-11-21T22:58:49.088Z,1.40
